createdAt,value
2017-12-22T00:00:43.972Z,134.17
2017-12-22T00:03:12.832Z,124.37
2017-12-22T00:05:41.728Z,129.17
2017-12-22T00:08:10.589Z,139.13
2017-12-22T00:10:40.246Z,129.63
2017-12-22T00:13:09.115Z,138.43
2017-12-22T00:15:47.831Z,134.10
2017-12-22T00:18:16.675Z,133.70
2017-12-22T00:20:45.509Z,135.60
2017-12-22T00:23:14.416Z,130.27
2017-12-22T00:25:43.250Z,141.50
2017-12-22T00:28:12.851Z,123.07
2017-12-22T00:30:41.695Z,131.23
2017-12-22T00:33:10.547Z,138.17
2017-12-22T00:35:40.158Z,152.57
2017-12-22T00:38:09.795Z,143.87
2017-12-22T00:40:38.650Z,154.60
2017-12-22T00:43:08.292Z,171.53
2017-12-22T00:45:37.150Z,140.70
2017-12-22T00:48:06.759Z,144.33
2017-12-22T00:50:35.856Z,157.10
2017-12-22T00:53:05.468Z,139.40
2017-12-22T00:55:34.457Z,161.87
2017-12-22T00:58:04.062Z,173.73
2017-12-22T01:00:33.672Z,191.60
2017-12-22T01:03:02.510Z,156.13
2017-12-22T01:05:31.378Z,127.07
2017-12-22T01:08:00.219Z,133.13
2017-12-22T01:10:29.322Z,146.17
2017-12-22T01:12:58.501Z,136.13
2017-12-22T01:15:33.011Z,135.17
2017-12-22T01:18:08.046Z,173.40
2017-12-22T01:20:37.655Z,166.40
2017-12-22T01:23:07.275Z,137.70
2017-12-22T01:25:36.122Z,179.27
2017-12-22T01:28:04.971Z,179.20
2017-12-22T01:30:34.576Z,151.47
2017-12-22T01:33:03.439Z,139.80
2017-12-22T01:35:33.042Z,207.13
2017-12-22T01:38:02.670Z,135.30
2017-12-22T01:40:31.515Z,175.57
2017-12-22T01:43:00.372Z,156.40
2017-12-22T01:45:29.243Z,189.50
2017-12-22T01:47:58.087Z,131.97
2017-12-22T01:50:26.922Z,135.83
2017-12-22T01:52:56.630Z,119.27
2017-12-22T01:55:25.826Z,144.40
2017-12-22T01:57:54.667Z,160.40
2017-12-22T02:00:23.517Z,147.07
2017-12-22T02:02:52.379Z,140.73
2017-12-22T02:05:21.997Z,142.83
2017-12-22T02:07:50.823Z,142.50
2017-12-22T02:10:19.682Z,159.73
2017-12-22T02:12:48.527Z,152.20
2017-12-22T02:15:18.155Z,125.60
2017-12-22T02:17:47.015Z,175.93
2017-12-22T02:20:16.666Z,124.20
2017-12-22T02:22:45.516Z,157.47
2017-12-22T02:25:15.183Z,176.33
2017-12-22T02:27:44.020Z,163.50
2017-12-22T02:30:13.648Z,146.67
2017-12-22T02:32:43.438Z,188.30
2017-12-22T02:35:13.043Z,188.40
2017-12-22T02:37:42.670Z,170.80
2017-12-22T02:40:11.519Z,196.10
2017-12-22T02:42:40.364Z,135.80
2017-12-22T02:45:09.207Z,156.60
2017-12-22T02:47:38.827Z,137.87
2017-12-22T02:50:08.466Z,152.83
2017-12-22T02:52:37.299Z,139.00
2017-12-22T02:55:06.151Z,134.33
2017-12-22T02:57:35.023Z,132.50
2017-12-22T03:00:03.871Z,131.87
2017-12-22T03:02:33.522Z,124.03
2017-12-22T03:05:02.415Z,130.27
2017-12-22T03:07:31.266Z,120.73
2017-12-22T03:10:00.126Z,171.20
2017-12-22T03:12:29.750Z,146.60
2017-12-22T03:14:58.602Z,156.30
2017-12-22T03:17:27.454Z,160.80
2017-12-22T03:19:56.307Z,125.90
2017-12-22T03:22:25.142Z,117.13
2017-12-22T03:24:54.009Z,205.27
2017-12-22T03:27:22.851Z,189.17
2017-12-22T03:29:51.704Z,155.53
2017-12-22T03:32:20.545Z,177.50
2017-12-22T03:34:50.163Z,185.00
2017-12-22T03:37:19.002Z,180.67
2017-12-22T03:39:47.870Z,147.13
2017-12-22T03:42:16.704Z,123.73
2017-12-22T03:44:45.562Z,125.43
2017-12-22T03:47:14.426Z,128.90
2017-12-22T03:49:43.278Z,133.03
2017-12-22T03:52:13.641Z,127.97
2017-12-22T03:54:42.489Z,139.37
2017-12-22T03:57:11.332Z,101.73
2017-12-22T03:59:40.175Z,129.30
2017-12-22T04:02:09.806Z,116.60
2017-12-22T04:04:38.655Z,116.83
2017-12-22T04:07:07.503Z,125.17
2017-12-22T04:09:36.367Z,146.77
2017-12-22T04:12:05.429Z,109.77
2017-12-22T04:14:34.259Z,135.40
2017-12-22T04:17:03.115Z,106.77
2017-12-22T04:19:32.199Z,153.90
2017-12-22T04:22:01.142Z,132.27
2017-12-22T04:24:30.077Z,88.97
2017-12-22T04:26:58.922Z,123.77
2017-12-22T04:29:27.764Z,124.50
2017-12-22T04:31:56.699Z,153.73
2017-12-22T04:34:25.565Z,132.43
2017-12-22T04:36:55.210Z,104.60
2017-12-22T04:39:24.601Z,86.00
2017-12-22T04:41:53.443Z,95.40
2017-12-22T04:44:23.205Z,119.40
2017-12-22T04:46:52.038Z,130.13
2017-12-22T04:49:21.702Z,114.67
2017-12-22T04:51:50.542Z,112.57
2017-12-22T04:54:19.391Z,94.07
2017-12-22T04:56:48.219Z,109.10
2017-12-22T04:59:17.076Z,115.87
2017-12-22T05:01:45.967Z,95.23
2017-12-22T05:04:14.820Z,117.80
2017-12-22T05:06:43.679Z,108.13
2017-12-22T05:09:13.347Z,105.30
2017-12-22T05:11:42.526Z,92.00
2017-12-22T05:14:11.378Z,108.20
2017-12-22T05:16:40.235Z,101.13
2017-12-22T05:19:09.841Z,92.00
2017-12-22T05:21:39.530Z,100.77
2017-12-22T05:24:08.373Z,109.83
2017-12-22T05:26:37.275Z,132.77
2017-12-22T05:29:06.149Z,96.87
2017-12-22T05:31:34.982Z,116.43
2017-12-22T05:34:04.601Z,91.53
2017-12-22T05:36:34.210Z,102.80
2017-12-22T05:39:03.851Z,99.40
2017-12-22T05:41:32.706Z,120.17
2017-12-22T05:44:02.326Z,100.13
2017-12-22T05:46:31.961Z,118.67
2017-12-22T05:49:00.796Z,125.60
2017-12-22T05:51:29.644Z,98.67
2017-12-22T05:53:58.497Z,136.47
2017-12-22T05:56:28.134Z,160.03
2017-12-22T05:58:57.801Z,116.67
2017-12-22T06:01:26.673Z,158.17
2017-12-22T06:03:55.518Z,112.93
2017-12-22T06:06:24.362Z,152.77
2017-12-22T06:08:53.277Z,181.93
2017-12-22T06:11:22.913Z,154.77
2017-12-22T06:13:52.540Z,92.30
2017-12-22T06:16:21.387Z,108.37
2017-12-22T06:18:50.218Z,106.83
2017-12-22T06:21:19.086Z,109.83
2017-12-22T06:23:48.717Z,123.50
2017-12-22T06:26:17.557Z,129.07
2017-12-22T06:28:46.408Z,123.03
2017-12-22T06:31:15.263Z,116.00
2017-12-22T06:33:44.169Z,121.60
2017-12-22T06:36:13.782Z,110.13
2017-12-22T06:38:42.671Z,117.70
2017-12-22T06:41:12.058Z,123.60
2017-12-22T06:43:40.907Z,110.80
2017-12-22T06:46:09.731Z,98.83
2017-12-22T06:48:39.370Z,97.60
2017-12-22T06:51:08.252Z,111.20
2017-12-22T06:53:37.902Z,128.63
2017-12-22T06:56:06.746Z,122.30
2017-12-22T06:58:35.599Z,113.07
2017-12-22T07:01:04.910Z,108.87
2017-12-22T07:03:34.543Z,106.70
2017-12-22T07:06:03.392Z,98.60
2017-12-22T07:08:33.014Z,105.00
2017-12-22T07:11:01.854Z,93.20
2017-12-22T07:13:30.726Z,94.23
2017-12-22T07:15:59.597Z,89.00
2017-12-22T07:18:29.214Z,105.93
2017-12-22T07:20:58.821Z,101.23
2017-12-22T07:23:28.455Z,91.30
2017-12-22T07:25:57.307Z,102.67
2017-12-22T07:28:27.891Z,116.50
2017-12-22T07:30:56.727Z,111.23
2017-12-22T07:33:26.365Z,96.33
2017-12-22T07:35:55.314Z,114.53
2017-12-22T07:38:25.683Z,85.20
2017-12-22T07:40:54.539Z,87.40
2017-12-22T07:43:24.147Z,101.83
2017-12-22T07:45:52.990Z,108.73
2017-12-22T07:48:21.826Z,107.83
2017-12-22T07:50:51.443Z,114.63
2017-12-22T07:53:21.056Z,113.80
2017-12-22T07:55:49.940Z,121.57
2017-12-22T07:58:19.546Z,87.50
2017-12-22T08:00:49.164Z,107.60
2017-12-22T08:03:18.766Z,123.73
2017-12-22T08:05:48.399Z,139.77
2017-12-22T08:08:18.887Z,133.87
2017-12-22T08:10:48.518Z,132.47
2017-12-22T08:13:17.379Z,181.00
2017-12-22T08:15:46.233Z,196.13
2017-12-22T08:18:15.850Z,155.10
2017-12-22T08:20:45.469Z,149.27
2017-12-22T08:23:15.092Z,120.27
2017-12-22T08:25:43.933Z,124.77
2017-12-22T08:28:12.799Z,128.30
2017-12-22T08:30:41.642Z,102.43
2017-12-22T08:33:10.557Z,123.73
2017-12-22T08:35:39.370Z,110.67
2017-12-22T08:38:08.278Z,110.97
2017-12-22T08:40:37.101Z,126.73
2017-12-22T08:43:07.422Z,106.43
2017-12-22T08:45:37.404Z,116.60
2017-12-22T08:48:06.247Z,126.10
2017-12-22T08:50:35.185Z,138.47
2017-12-22T08:53:03.999Z,151.17
2017-12-22T08:55:33.620Z,102.80
2017-12-22T08:58:03.258Z,92.33
2017-12-22T09:00:32.114Z,112.07
2017-12-22T09:03:01.739Z,102.20
2017-12-22T09:05:30.578Z,120.47
2017-12-22T09:08:01.261Z,117.10
2017-12-22T09:10:30.117Z,79.17
2017-12-22T09:12:58.971Z,85.67
2017-12-22T09:15:27.823Z,86.60
2017-12-22T09:17:57.467Z,86.37
2017-12-22T09:20:26.318Z,76.30
2017-12-22T09:22:55.961Z,71.50
2017-12-22T09:25:24.815Z,78.20
2017-12-22T09:27:54.438Z,68.00
2017-12-22T09:30:23.357Z,81.83
2017-12-22T09:32:52.248Z,75.13
2017-12-22T09:35:21.136Z,69.10
2017-12-22T09:37:50.025Z,65.90
2017-12-22T09:40:19.611Z,68.93
2017-12-22T09:42:48.492Z,73.13
2017-12-22T09:45:18.103Z,71.03
2017-12-22T09:47:47.735Z,79.07
2017-12-22T09:50:16.576Z,73.23
2017-12-22T09:52:45.430Z,81.27
2017-12-22T09:55:14.333Z,71.93
2017-12-22T09:57:43.907Z,73.83
2017-12-22T10:00:12.759Z,86.67
2017-12-22T10:02:41.616Z,96.53
2017-12-22T10:05:10.484Z,105.97
2017-12-22T10:07:39.667Z,99.07
2017-12-22T10:10:08.497Z,109.93
2017-12-22T10:12:38.992Z,98.17
2017-12-22T10:15:08.572Z,95.20
2017-12-22T10:17:38.282Z,88.17
2017-12-22T10:20:07.891Z,73.47
2017-12-22T10:22:36.759Z,66.20
2017-12-22T10:25:05.614Z,78.97
2017-12-22T10:27:34.464Z,63.57
2017-12-22T10:30:03.318Z,74.80
2017-12-22T10:32:32.924Z,68.13
2017-12-22T10:35:01.762Z,63.07
2017-12-22T10:37:30.602Z,66.10
2017-12-22T10:39:59.452Z,65.00
2017-12-22T10:42:28.310Z,70.67
2017-12-22T10:44:57.936Z,59.23
2017-12-22T10:47:26.779Z,68.20
2017-12-22T10:49:55.639Z,60.17
2017-12-22T10:52:24.487Z,65.27
2017-12-22T10:54:53.350Z,65.60
2017-12-22T10:57:23.694Z,66.57
2017-12-22T10:59:53.328Z,51.43
2017-12-22T11:02:22.162Z,51.03
2017-12-22T11:04:51.947Z,44.07
2017-12-22T11:07:20.827Z,41.90
2017-12-22T11:09:49.759Z,49.13
2017-12-22T11:12:18.599Z,47.30
2017-12-22T11:14:47.435Z,57.30
2017-12-22T11:17:16.290Z,56.67
2017-12-22T11:19:45.143Z,54.67
2017-12-22T11:22:14.002Z,56.50
2017-12-22T11:24:42.858Z,51.40
2017-12-22T11:27:12.022Z,54.77
2017-12-22T11:29:41.663Z,58.07
2017-12-22T11:32:10.519Z,54.37
2017-12-22T11:34:40.184Z,56.20
2017-12-22T11:37:09.023Z,55.97
2017-12-22T11:39:38.668Z,54.50
2017-12-22T11:42:07.500Z,48.63
2017-12-22T11:44:36.350Z,55.47
2017-12-22T11:47:05.191Z,50.30
2017-12-22T11:49:34.039Z,53.83
2017-12-22T11:52:02.958Z,44.87
2017-12-22T11:54:31.770Z,48.40
2017-12-22T11:57:01.387Z,45.70
2017-12-22T11:59:30.259Z,48.63
2017-12-22T12:01:59.879Z,56.53
2017-12-22T12:04:29.505Z,48.77
2017-12-22T12:06:58.372Z,46.40
2017-12-22T12:09:28.112Z,50.70
2017-12-22T12:11:56.950Z,48.23
2017-12-22T12:14:26.910Z,50.00
2017-12-22T12:16:55.752Z,47.80
2017-12-22T12:19:25.376Z,49.60
2017-12-22T12:21:54.780Z,54.63
2017-12-22T12:24:24.388Z,52.33
2017-12-22T12:26:54.017Z,50.20
2017-12-22T12:29:22.870Z,61.80
2017-12-22T12:31:51.999Z,55.40
2017-12-22T12:34:20.862Z,57.47
2017-12-22T12:36:49.872Z,55.90
2017-12-22T12:39:20.106Z,58.17
2017-12-22T12:41:50.192Z,61.90
2017-12-22T12:44:19.832Z,55.13
2017-12-22T12:46:48.708Z,55.93
2017-12-22T12:49:17.567Z,56.70
2017-12-22T12:51:47.947Z,49.30
2017-12-22T12:54:16.807Z,50.57
2017-12-22T12:56:45.667Z,52.90
2017-12-22T12:59:14.527Z,55.93
2017-12-22T13:01:43.386Z,48.43
2017-12-22T13:04:13.083Z,54.77
2017-12-22T13:06:41.852Z,50.10
2017-12-22T13:09:10.704Z,47.50
2017-12-22T13:11:39.687Z,51.33
2017-12-22T13:14:08.532Z,44.87
2017-12-22T13:16:37.390Z,50.50
2017-12-22T13:19:06.235Z,57.83
2017-12-22T13:21:35.878Z,51.57
2017-12-22T13:24:04.731Z,50.97
2017-12-22T13:26:34.394Z,61.67
2017-12-22T13:29:03.272Z,53.50
2017-12-22T13:31:32.989Z,56.87
2017-12-22T13:34:01.963Z,54.53
2017-12-22T13:36:30.913Z,45.83
2017-12-22T13:38:59.757Z,57.40
2017-12-22T13:41:28.637Z,48.87
2017-12-22T13:43:58.251Z,48.67
2017-12-22T13:46:27.875Z,50.07
2017-12-22T13:48:56.739Z,47.93
2017-12-22T13:51:26.054Z,49.70
2017-12-22T13:53:54.909Z,46.23
2017-12-22T13:56:23.746Z,62.43
2017-12-22T13:58:52.609Z,45.20
2017-12-22T14:01:21.450Z,60.33
2017-12-22T14:03:51.081Z,52.67
2017-12-22T14:06:20.691Z,55.73
2017-12-22T14:08:50.330Z,58.30
2017-12-22T14:11:19.628Z,55.57
2017-12-22T14:13:48.505Z,52.40
2017-12-22T14:16:17.371Z,54.93
2017-12-22T14:18:47.786Z,49.47
2017-12-22T14:21:16.666Z,55.07
2017-12-22T14:23:45.522Z,49.83
2017-12-22T14:26:15.161Z,58.83
2017-12-22T14:28:44.009Z,56.60
2017-12-22T14:31:12.864Z,57.80
2017-12-22T14:33:41.740Z,45.50
2017-12-22T14:36:10.592Z,58.60
2017-12-22T14:38:40.323Z,54.37
2017-12-22T14:41:09.944Z,62.53
2017-12-22T14:43:38.780Z,54.20
2017-12-22T14:46:07.631Z,56.47
2017-12-22T14:48:36.485Z,65.70
2017-12-22T14:51:06.121Z,57.30
2017-12-22T14:53:34.964Z,57.73
2017-12-22T14:56:03.796Z,69.97
2017-12-22T14:58:32.666Z,63.80
2017-12-22T15:01:01.757Z,70.83
2017-12-22T15:03:31.386Z,68.30
2017-12-22T15:06:00.242Z,68.23
2017-12-22T15:08:30.190Z,79.07
2017-12-22T15:10:59.406Z,64.30
2017-12-22T15:13:29.731Z,76.40
2017-12-22T15:16:08.180Z,110.77
2017-12-22T15:18:38.735Z,76.07
2017-12-22T15:21:07.589Z,70.97
2017-12-22T15:23:37.237Z,71.70
2017-12-22T15:26:06.107Z,66.03
2017-12-22T15:28:34.974Z,68.17
2017-12-22T15:31:05.264Z,64.00
2017-12-22T15:33:34.099Z,64.43
2017-12-22T15:36:02.970Z,61.03
2017-12-22T15:38:32.578Z,65.37
2017-12-22T15:41:02.211Z,59.83
2017-12-22T15:43:31.059Z,67.30
2017-12-22T15:45:59.898Z,55.83
2017-12-22T15:48:28.770Z,64.60
2017-12-22T15:50:58.387Z,63.17
2017-12-22T15:53:27.245Z,68.53
2017-12-22T15:55:56.117Z,51.83
2017-12-22T15:58:24.954Z,54.50
2017-12-22T16:00:53.831Z,57.03
2017-12-22T16:03:22.696Z,51.80
2017-12-22T16:05:52.182Z,56.53
2017-12-22T16:08:21.147Z,47.83
2017-12-22T16:10:50.026Z,54.00
2017-12-22T16:13:18.934Z,51.53
2017-12-22T16:15:47.835Z,47.10
2017-12-22T16:18:16.698Z,48.90
2017-12-22T16:20:46.336Z,50.20
2017-12-22T16:23:15.455Z,44.97
2017-12-22T16:25:44.343Z,50.37
2017-12-22T16:28:15.576Z,52.13
2017-12-22T16:30:44.440Z,50.40
2017-12-22T16:33:14.051Z,50.27
2017-12-22T16:35:42.926Z,47.20
2017-12-22T16:38:12.544Z,42.40
2017-12-22T16:40:42.274Z,38.87
2017-12-22T16:43:11.117Z,37.10
2017-12-22T16:45:39.981Z,38.33
2017-12-22T16:48:08.843Z,37.37
2017-12-22T16:50:37.763Z,38.77
2017-12-22T16:53:06.595Z,39.03
2017-12-22T16:55:36.235Z,45.67
2017-12-22T16:58:05.101Z,43.67
2017-12-22T17:00:34.787Z,48.27
2017-12-22T17:03:04.435Z,49.00
2017-12-22T17:05:33.283Z,45.77
2017-12-22T17:08:02.166Z,45.27
2017-12-22T17:10:31.015Z,54.50
2017-12-22T17:13:00.288Z,47.57
2017-12-22T17:15:29.909Z,45.67
2017-12-22T17:17:58.843Z,45.10
2017-12-22T17:20:27.763Z,47.60
2017-12-22T17:22:57.822Z,51.20
2017-12-22T17:25:26.726Z,46.57
2017-12-22T17:27:55.577Z,41.83
2017-12-22T17:30:24.441Z,50.63
2017-12-22T17:32:54.019Z,50.37
2017-12-22T17:35:23.656Z,49.20
2017-12-22T17:37:52.523Z,47.17
2017-12-22T17:40:22.151Z,56.50
2017-12-22T17:42:51.007Z,47.00
2017-12-22T17:45:20.656Z,57.27
2017-12-22T17:47:49.515Z,58.03
2017-12-22T17:50:19.146Z,59.23
2017-12-22T17:52:48.054Z,70.33
2017-12-22T17:55:16.922Z,63.43
2017-12-22T17:57:45.772Z,62.00
2017-12-22T18:00:14.716Z,64.67
2017-12-22T18:02:43.579Z,63.27
2017-12-22T18:05:13.218Z,58.60
2017-12-22T18:07:41.834Z,54.00
2017-12-22T18:10:10.464Z,60.97
2017-12-22T18:12:39.072Z,65.90
2017-12-22T18:15:08.454Z,67.93
2017-12-22T18:17:37.089Z,63.07
2017-12-22T18:20:06.471Z,63.43
2017-12-22T18:22:35.096Z,73.97
2017-12-22T18:25:03.947Z,75.63
2017-12-22T18:27:33.285Z,71.27
2017-12-22T18:30:02.114Z,78.80
2017-12-22T18:32:30.978Z,74.77
2017-12-22T18:35:00.587Z,75.67
2017-12-22T18:37:29.466Z,74.67
2017-12-22T18:39:59.076Z,68.07
2017-12-22T18:42:28.716Z,68.10
2017-12-22T18:44:58.344Z,71.43
2017-12-22T18:47:27.216Z,74.53
2017-12-22T18:49:56.065Z,74.83
2017-12-22T18:52:25.890Z,93.87
2017-12-22T18:54:55.512Z,82.37
2017-12-22T18:57:25.191Z,93.80
2017-12-22T18:59:54.022Z,75.63
2017-12-22T19:02:22.894Z,80.30
2017-12-22T19:04:52.505Z,84.73
2017-12-22T19:07:22.128Z,85.83
2017-12-22T19:09:51.018Z,76.30
2017-12-22T19:12:19.866Z,67.93
2017-12-22T19:14:49.739Z,72.37
2017-12-22T19:17:18.604Z,82.47
2017-12-22T19:19:47.410Z,71.73
2017-12-22T19:22:17.062Z,69.70
2017-12-22T19:24:47.576Z,63.77
2017-12-22T19:27:16.416Z,78.13
2017-12-22T19:29:45.301Z,67.00
2017-12-22T19:32:15.671Z,69.50
2017-12-22T19:34:44.510Z,76.90
2017-12-22T19:37:13.342Z,65.90
2017-12-22T19:39:42.200Z,68.00
2017-12-22T19:42:11.047Z,62.07
2017-12-22T19:44:39.910Z,64.13
2017-12-22T19:47:08.818Z,65.17
2017-12-22T19:49:37.691Z,81.73
2017-12-22T19:52:06.563Z,90.93
2017-12-22T19:54:36.201Z,77.90
2017-12-22T19:57:05.044Z,72.33
2017-12-22T19:59:34.706Z,74.73
2017-12-22T20:02:04.025Z,73.87
2017-12-22T20:04:32.927Z,77.83
2017-12-22T20:07:01.795Z,90.40
2017-12-22T20:09:30.672Z,89.97
2017-12-22T20:11:59.503Z,86.43
2017-12-22T20:14:29.162Z,77.37
2017-12-22T20:16:57.976Z,83.07
2017-12-22T20:19:28.236Z,82.33
2017-12-22T20:21:57.816Z,92.47
2017-12-22T20:24:27.472Z,85.63
2017-12-22T20:26:56.441Z,84.87
2017-12-22T20:29:25.402Z,86.53
2017-12-22T20:31:54.288Z,75.43
2017-12-22T20:34:23.952Z,55.33
2017-12-22T20:36:52.829Z,86.93
2017-12-22T20:39:21.710Z,64.53
2017-12-22T20:41:51.316Z,64.20
2017-12-22T20:44:20.164Z,68.97
2017-12-22T20:46:49.025Z,88.83
2017-12-22T20:49:17.965Z,81.60
2017-12-22T20:51:47.609Z,84.40
2017-12-22T20:54:16.486Z,62.07
2017-12-22T20:56:46.077Z,74.90
2017-12-22T20:59:14.944Z,84.67
2017-12-22T21:01:43.783Z,79.43
2017-12-22T21:04:12.780Z,90.20
2017-12-22T21:06:41.637Z,71.13
2017-12-22T21:09:11.274Z,113.67
2017-12-22T21:11:40.222Z,77.87
2017-12-22T21:14:09.877Z,78.53
2017-12-22T21:16:38.740Z,87.20
2017-12-22T21:19:07.651Z,82.60
2017-12-22T21:21:36.506Z,80.83
2017-12-22T21:24:06.134Z,59.10
2017-12-22T21:26:34.986Z,52.90
2017-12-22T21:29:04.600Z,46.80
2017-12-22T21:31:34.219Z,72.23
2017-12-22T21:34:03.862Z,96.67
2017-12-22T21:36:32.724Z,91.87
2017-12-22T21:39:02.351Z,77.30
2017-12-22T21:41:31.183Z,88.20
2017-12-22T21:44:00.019Z,73.83
2017-12-22T21:46:29.930Z,79.83
2017-12-22T21:48:58.763Z,80.27
2017-12-22T21:51:27.606Z,86.73
2017-12-22T21:53:56.522Z,89.70
2017-12-22T21:56:25.521Z,79.93
2017-12-22T21:58:54.431Z,86.03
2017-12-22T22:01:23.284Z,85.67
2017-12-22T22:03:52.176Z,82.00
2017-12-22T22:06:21.028Z,83.20
2017-12-22T22:08:50.679Z,71.90
2017-12-22T22:11:19.628Z,86.57
2017-12-22T22:13:48.461Z,88.23
2017-12-22T22:16:17.528Z,84.03
2017-12-22T22:18:47.191Z,97.13
2017-12-22T22:21:16.021Z,107.57
2017-12-22T22:23:44.860Z,115.00
2017-12-22T22:26:13.762Z,72.90
2017-12-22T22:28:42.615Z,76.37
2017-12-22T22:31:11.466Z,106.77
2017-12-22T22:33:41.829Z,86.93
2017-12-22T22:36:10.667Z,101.23
2017-12-22T22:38:39.510Z,110.60
2017-12-22T22:41:08.397Z,95.90
2017-12-22T22:43:37.268Z,113.83
2017-12-22T22:46:06.865Z,95.77
2017-12-22T22:48:36.483Z,102.63
2017-12-22T22:51:06.083Z,112.00
2017-12-22T22:53:34.947Z,103.13
2017-12-22T22:56:03.794Z,104.27
2017-12-22T22:58:32.708Z,114.73
2017-12-22T23:01:01.551Z,133.30
2017-12-22T23:03:30.415Z,157.73
2017-12-22T23:05:59.265Z,113.90
2017-12-22T23:08:28.114Z,155.20
2017-12-22T23:10:57.753Z,116.67
2017-12-22T23:13:26.579Z,126.00
2017-12-22T23:15:55.464Z,115.73
2017-12-22T23:18:25.195Z,95.17
2017-12-22T23:20:54.812Z,102.70
2017-12-22T23:23:23.706Z,104.73
2017-12-22T23:25:52.544Z,100.07
2017-12-22T23:28:22.150Z,93.43
2017-12-22T23:30:51.787Z,83.40
2017-12-22T23:33:20.659Z,95.80
2017-12-22T23:35:49.531Z,86.30
2017-12-22T23:38:19.643Z,94.47
2017-12-22T23:40:49.353Z,99.20
2017-12-22T23:43:19.408Z,88.57
2017-12-22T23:45:48.252Z,103.13
2017-12-22T23:48:17.099Z,87.87
2017-12-22T23:50:45.942Z,91.47
2017-12-22T23:53:15.593Z,97.47
2017-12-22T23:55:44.413Z,95.73
2017-12-22T23:58:13.270Z,92.07
